AFL1029 UUEE-URSS
Flight info
| Callsign | AFL1029 |
|---|---|
| Flight time | 2h 9m |
| Altitude | 35000 |
| Route | EMGAS3H EMGAS T828 EKTUT N72 UMSIS N166 OGURA G247 SM/K0828F290 B950 AG AG1K |
| Aircraft | A321/M-RA73724/LB1 |
Departure
| Time | 2026-05-05 08:11 |
|---|---|
| Airport | Sheremetyevo International Airport (UUEE) |
Arrival
| Time | 2026-05-05 10:20 |
|---|---|
| Airport | Sochi International Airport (URSS) |
| Time | Latitude | Longitude | Altitude | Speed | Heading |
|---|---|---|---|---|---|
| 2026-05-05 07:50 | 55.97985 | 37.41236 | 639 ft | 0 kts | 255° |
| 2026-05-05 07:58 | 55.97985 | 37.41237 | 639 ft | 1 kts | 255° |
| 2026-05-05 07:58 | 55.97993 | 37.41278 | 648 ft | 4 kts | 238° |
| 2026-05-05 07:58 | 55.98010 | 37.41311 | 645 ft | 4 kts | 203° |
| 2026-05-05 07:59 | 55.98030 | 37.41317 | 639 ft | 0 kts | 166° |
| 2026-05-05 08:01 | 55.97991 | 37.41334 | 643 ft | 14 kts | 166° |
| 2026-05-05 08:02 | 55.97886 | 37.41384 | 639 ft | 16 kts | 165° |
| 2026-05-05 08:02 | 55.97785 | 37.41433 | 641 ft | 15 kts | 165° |
| 2026-05-05 08:02 | 55.97695 | 37.41476 | 640 ft | 10 kts | 161° |
| 2026-05-05 08:02 | 55.97670 | 37.41566 | 644 ft | 7 kts | 122° |
| 2026-05-05 08:03 | 55.97633 | 37.41605 | 643 ft | 6 kts | 154° |
| 2026-05-05 08:03 | 55.97611 | 37.41694 | 643 ft | 12 kts | 82° |
| 2026-05-05 08:03 | 55.97640 | 37.41884 | 641 ft | 17 kts | 75° |
| 2026-05-05 08:03 | 55.97668 | 37.42076 | 639 ft | 15 kts | 76° |
| 2026-05-05 08:04 | 55.97692 | 37.42248 | 644 ft | 14 kts | 74° |
| 2026-05-05 08:04 | 55.97716 | 37.42401 | 639 ft | 12 kts | 73° |
| 2026-05-05 08:04 | 55.97737 | 37.42536 | 641 ft | 11 kts | 75° |
| 2026-05-05 08:04 | 55.97762 | 37.42703 | 641 ft | 20 kts | 75° |
| 2026-05-05 08:05 | 55.97799 | 37.42957 | 641 ft | 21 kts | 75° |
| 2026-05-05 08:05 | 55.97835 | 37.43195 | 647 ft | 19 kts | 74° |
| 2026-05-05 08:05 | 55.97868 | 37.43414 | 642 ft | 17 kts | 76° |
| 2026-05-05 08:05 | 55.97897 | 37.43612 | 642 ft | 16 kts | 76° |
| 2026-05-05 08:06 | 55.97925 | 37.43790 | 644 ft | 14 kts | 74° |
| 2026-05-05 08:06 | 55.97948 | 37.43948 | 643 ft | 12 kts | 79° |
| 2026-05-05 08:06 | 55.97906 | 37.44046 | 640 ft | 10 kts | 162° |
| 2026-05-05 08:06 | 55.97847 | 37.44072 | 642 ft | 8 kts | 167° |
| 2026-05-05 08:07 | 55.97797 | 37.44094 | 639 ft | 7 kts | 165° |
| 2026-05-05 08:07 | 55.97731 | 37.44126 | 641 ft | 14 kts | 165° |
| 2026-05-05 08:07 | 55.97680 | 37.44149 | 639 ft | 0 kts | 165° |
| 2026-05-05 08:09 | 55.97661 | 37.44158 | 642 ft | 8 kts | 165° |
| 2026-05-05 08:09 | 55.97606 | 37.44185 | 639 ft | 8 kts | 165° |
| 2026-05-05 08:09 | 55.97563 | 37.44183 | 640 ft | 5 kts | 205° |
| 2026-05-05 08:10 | 55.97543 | 37.44145 | 644 ft | 4 kts | 240° |
| 2026-05-05 08:10 | 55.97534 | 37.44101 | 641 ft | 4 kts | 254° |
| 2026-05-05 08:10 | 55.97504 | 37.43896 | 638 ft | 47 kts | 255° |
| 2026-05-05 08:10 | 55.97348 | 37.42832 | 642 ft | 126 kts | 255° |
| 2026-05-05 08:11 | 55.97073 | 37.40956 | 717 ft | 178 kts | 256° |
| 2026-05-05 08:11 | 55.96746 | 37.38760 | 1443 ft | 184 kts | 256° |
| 2026-05-05 08:11 | 55.96424 | 37.36530 | 2295 ft | 185 kts | 257° |
| 2026-05-05 08:11 | 55.96111 | 37.34349 | 2900 ft | 184 kts | 256° |
| 2026-05-05 08:12 | 55.95757 | 37.32006 | 3114 ft | 208 kts | 255° |
| 2026-05-05 08:12 | 55.95354 | 37.29377 | 3386 ft | 231 kts | 256° |
| 2026-05-05 08:12 | 55.94919 | 37.26532 | 3842 ft | 247 kts | 255° |
| 2026-05-05 08:12 | 55.94459 | 37.23526 | 4686 ft | 247 kts | 256° |
| 2026-05-05 08:13 | 55.94011 | 37.20597 | 5500 ft | 249 kts | 256° |
| 2026-05-05 08:13 | 55.93546 | 37.17552 | 5885 ft | 251 kts | 256° |
| 2026-05-05 08:13 | 55.93089 | 37.14565 | 6002 ft | 248 kts | 256° |
| 2026-05-05 08:13 | 55.92633 | 37.11569 | 6532 ft | 250 kts | 256° |
| 2026-05-05 08:14 | 55.92183 | 37.08613 | 7318 ft | 251 kts | 256° |
| 2026-05-05 08:14 | 55.91743 | 37.05593 | 8111 ft | 252 kts | 261° |
| 2026-05-05 08:14 | 55.91753 | 37.02466 | 8843 ft | 256 kts | 281° |
| 2026-05-05 08:14 | 55.92444 | 36.99523 | 9561 ft | 264 kts | 300° |
| 2026-05-05 08:15 | 55.93756 | 36.97150 | 9839 ft | 275 kts | 319° |
| 2026-05-05 08:15 | 55.95330 | 36.95213 | 9861 ft | 275 kts | 319° |
| 2026-05-05 08:15 | 55.96927 | 36.93326 | 9977 ft | 280 kts | 326° |
| 2026-05-05 08:15 | 55.98818 | 36.92248 | 10655 ft | 293 kts | 347° |
| 2026-05-05 08:16 | 56.00894 | 36.92490 | 11321 ft | 309 kts | 11° |
| 2026-05-05 08:16 | 56.02860 | 36.94201 | 11976 ft | 320 kts | 28° |
| 2026-05-05 08:16 | 56.04736 | 36.96382 | 12657 ft | 323 kts | 28° |
| 2026-05-05 08:16 | 56.06617 | 36.98601 | 13326 ft | 326 kts | 29° |
| 2026-05-05 08:17 | 56.08524 | 37.00857 | 13755 ft | 330 kts | 29° |
| 2026-05-05 08:17 | 56.10319 | 37.03438 | 13839 ft | 334 kts | 43° |
| 2026-05-05 08:17 | 56.11747 | 37.06744 | 13856 ft | 340 kts | 57° |
| 2026-05-05 08:17 | 56.12726 | 37.10737 | 14016 ft | 360 kts | 73° |
| 2026-05-05 08:18 | 56.13341 | 37.15085 | 14479 ft | 367 kts | 75° |
| 2026-05-05 08:18 | 56.13970 | 37.19547 | 14794 ft | 371 kts | 75° |
| 2026-05-05 08:18 | 56.14485 | 37.24074 | 14852 ft | 370 kts | 86° |
| 2026-05-05 08:18 | 56.14318 | 37.28646 | 14855 ft | 367 kts | 105° |
| 2026-05-05 08:19 | 56.13401 | 37.32867 | 14853 ft | 362 kts | 124° |
| 2026-05-05 08:19 | 56.11832 | 37.36357 | 15324 ft | 358 kts | 142° |
| 2026-05-05 08:19 | 56.09827 | 37.38926 | 15896 ft | 353 kts | 158° |
| 2026-05-05 08:19 | 56.07611 | 37.40842 | 16503 ft | 355 kts | 159° |
| 2026-05-05 08:20 | 56.05369 | 37.42734 | 17097 ft | 357 kts | 160° |
| 2026-05-05 08:20 | 56.03107 | 37.44623 | 17680 ft | 360 kts | 160° |
| 2026-05-05 08:20 | 56.00826 | 37.46525 | 18247 ft | 363 kts | 160° |
| 2026-05-05 08:20 | 55.98536 | 37.48465 | 18746 ft | 367 kts | 156° |
| 2026-05-05 08:21 | 55.96410 | 37.51093 | 19237 ft | 377 kts | 142° |
| 2026-05-05 08:21 | 55.94668 | 37.54650 | 19714 ft | 387 kts | 126° |
| 2026-05-05 08:21 | 55.93453 | 37.58968 | 20205 ft | 394 kts | 111° |
| 2026-05-05 08:21 | 55.92811 | 37.63751 | 20690 ft | 399 kts | 102° |
| 2026-05-05 08:22 | 55.92285 | 37.68631 | 21150 ft | 401 kts | 102° |
| 2026-05-05 08:22 | 55.91615 | 37.73457 | 21693 ft | 401 kts | 111° |
| 2026-05-05 08:22 | 55.90922 | 37.76501 | 22025 ft | 401 kts | 118° |
| 2026-05-05 08:22 | 55.89587 | 37.80874 | 22498 ft | 402 kts | 122° |
| 2026-05-05 08:23 | 55.87763 | 37.86658 | 23123 ft | 406 kts | 122° |
| 2026-05-05 08:23 | 55.86829 | 37.89625 | 23431 ft | 408 kts | 122° |
| 2026-05-05 08:23 | 55.84778 | 37.95210 | 23925 ft | 406 kts | 136° |
| 2026-05-05 08:23 | 55.82650 | 37.98435 | 24280 ft | 401 kts | 153° |
| 2026-05-05 08:24 | 55.80137 | 38.00460 | 24633 ft | 394 kts | 169° |
| 2026-05-05 08:24 | 55.78333 | 38.01086 | 24887 ft | 389 kts | 180° |
| 2026-05-05 08:24 | 55.75657 | 38.00928 | 25255 ft | 383 kts | 195° |
| 2026-05-05 08:24 | 55.73138 | 37.99569 | 25627 ft | 377 kts | 209° |
| 2026-05-05 08:25 | 55.70927 | 37.97155 | 25990 ft | 372 kts | 223° |
| 2026-05-05 08:25 | 55.69063 | 37.93992 | 26356 ft | 371 kts | 228° |
| 2026-05-05 08:25 | 55.67235 | 37.90737 | 26729 ft | 373 kts | 228° |
| 2026-05-05 08:25 | 55.65384 | 37.87584 | 27094 ft | 376 kts | 223° |
| 2026-05-05 08:26 | 55.63214 | 37.84910 | 27329 ft | 385 kts | 214° |
| 2026-05-05 08:26 | 55.60874 | 37.82496 | 27461 ft | 393 kts | 214° |
| 2026-05-05 08:26 | 55.58493 | 37.80040 | 27600 ft | 400 kts | 214° |
| 2026-05-05 08:26 | 55.56069 | 37.77536 | 27727 ft | 407 kts | 213° |
| 2026-05-05 08:27 | 55.53597 | 37.74984 | 27884 ft | 414 kts | 213° |
| 2026-05-05 08:27 | 55.50971 | 37.72755 | 28019 ft | 424 kts | 204° |
| 2026-05-05 08:27 | 55.48117 | 37.71221 | 28151 ft | 434 kts | 196° |
| 2026-05-05 08:27 | 55.45100 | 37.70384 | 28295 ft | 442 kts | 191° |
| 2026-05-05 08:28 | 55.42034 | 37.69655 | 28437 ft | 448 kts | 192° |
| 2026-05-05 08:28 | 55.38933 | 37.68907 | 28680 ft | 450 kts | 192° |
| 2026-05-05 08:28 | 55.35874 | 37.68163 | 29025 ft | 450 kts | 192° |
| 2026-05-05 08:28 | 55.32770 | 37.67410 | 29388 ft | 450 kts | 192° |
| 2026-05-05 08:29 | 55.29669 | 37.66670 | 29773 ft | 450 kts | 190° |
| 2026-05-05 08:29 | 55.26532 | 37.66457 | 30135 ft | 453 kts | 181° |
| 2026-05-05 08:29 | 55.23386 | 37.67038 | 30474 ft | 456 kts | 176° |
| 2026-05-05 08:30 | 55.17119 | 37.68556 | 31163 ft | 453 kts | 176° |
| 2026-05-05 08:30 | 55.13995 | 37.69312 | 31517 ft | 452 kts | 176° |
| 2026-05-05 08:30 | 55.10883 | 37.70058 | 31865 ft | 451 kts | 177° |
| 2026-05-05 08:30 | 55.07775 | 37.70797 | 32175 ft | 451 kts | 176° |
| 2026-05-05 08:31 | 55.04663 | 37.71532 | 32499 ft | 451 kts | 176° |
| 2026-05-05 08:31 | 55.01559 | 37.72261 | 32807 ft | 450 kts | 176° |
| 2026-05-05 08:31 | 54.98464 | 37.73210 | 33098 ft | 453 kts | 170° |
| 2026-05-05 08:31 | 54.95395 | 37.74492 | 33420 ft | 453 kts | 171° |
| 2026-05-05 08:32 | 54.92372 | 37.75754 | 33737 ft | 452 kts | 171° |
| 2026-05-05 08:32 | 54.89312 | 37.76994 | 34027 ft | 450 kts | 173° |
| 2026-05-05 08:32 | 54.86226 | 37.77783 | 34288 ft | 448 kts | 176° |
| 2026-05-05 08:32 | 54.83140 | 37.78500 | 34554 ft | 447 kts | 176° |
| 2026-05-05 08:33 | 54.80060 | 37.79216 | 34804 ft | 447 kts | 176° |
| 2026-05-05 08:33 | 54.73897 | 37.80650 | 34886 ft | 446 kts | 176° |
| 2026-05-05 08:34 | 54.67734 | 37.82074 | 34901 ft | 447 kts | 176° |
| 2026-05-05 08:34 | 54.61544 | 37.82865 | 34905 ft | 446 kts | 181° |
| 2026-05-05 08:35 | 54.55342 | 37.83251 | 34904 ft | 446 kts | 181° |
| 2026-05-05 08:35 | 54.49140 | 37.83706 | 34906 ft | 448 kts | 176° |
| 2026-05-05 08:36 | 54.43093 | 37.86484 | 34907 ft | 455 kts | 158° |
| 2026-05-05 08:36 | 54.37495 | 37.91656 | 34895 ft | 457 kts | 154° |
| 2026-05-05 08:37 | 54.31945 | 37.96835 | 34897 ft | 457 kts | 154° |
| 2026-05-05 08:37 | 54.26354 | 38.02036 | 34901 ft | 457 kts | 154° |
| 2026-05-05 08:38 | 54.20761 | 38.07237 | 34907 ft | 457 kts | 154° |
| 2026-05-05 08:38 | 54.15169 | 38.12418 | 34915 ft | 457 kts | 154° |
| 2026-05-05 08:39 | 54.09573 | 38.17579 | 34916 ft | 457 kts | 153° |
| 2026-05-05 08:39 | 54.03987 | 38.22706 | 34923 ft | 456 kts | 153° |
| 2026-05-05 08:40 | 53.98398 | 38.27821 | 34919 ft | 456 kts | 153° |
| 2026-05-05 08:40 | 53.92815 | 38.32944 | 34921 ft | 456 kts | 153° |
| 2026-05-05 08:41 | 53.87234 | 38.38051 | 34919 ft | 456 kts | 153° |
| 2026-05-05 08:41 | 53.81685 | 38.43088 | 34918 ft | 455 kts | 153° |
| 2026-05-05 08:42 | 53.76082 | 38.48079 | 34924 ft | 454 kts | 157° |
| 2026-05-05 08:42 | 53.70067 | 38.51094 | 34925 ft | 451 kts | 171° |
| 2026-05-05 08:43 | 53.63915 | 38.53101 | 34923 ft | 451 kts | 171° |
| 2026-05-05 08:43 | 53.57754 | 38.55117 | 34924 ft | 451 kts | 171° |
| 2026-05-05 08:44 | 53.51595 | 38.57137 | 34925 ft | 451 kts | 171° |
| 2026-05-05 08:44 | 53.45434 | 38.59172 | 34931 ft | 451 kts | 170° |
| 2026-05-05 08:45 | 53.39268 | 38.61180 | 34924 ft | 451 kts | 171° |
| 2026-05-05 08:45 | 53.33107 | 38.63169 | 34929 ft | 451 kts | 171° |
| 2026-05-05 08:46 | 53.26943 | 38.65168 | 34926 ft | 451 kts | 170° |
| 2026-05-05 08:46 | 53.20775 | 38.67176 | 34929 ft | 452 kts | 170° |
| 2026-05-05 08:47 | 53.14638 | 38.69163 | 34923 ft | 452 kts | 170° |
| 2026-05-05 08:47 | 53.08456 | 38.71161 | 34926 ft | 453 kts | 170° |
| 2026-05-05 08:48 | 53.02266 | 38.73148 | 34929 ft | 453 kts | 170° |
| 2026-05-05 08:48 | 52.96069 | 38.75114 | 34931 ft | 454 kts | 171° |
| 2026-05-05 08:49 | 52.89861 | 38.77081 | 34940 ft | 454 kts | 169° |
| 2026-05-05 08:49 | 52.83645 | 38.79063 | 34941 ft | 455 kts | 169° |
| 2026-05-05 08:50 | 52.77416 | 38.81037 | 34948 ft | 456 kts | 169° |
| 2026-05-05 08:50 | 52.71179 | 38.83015 | 34954 ft | 457 kts | 169° |
| 2026-05-05 08:51 | 52.64936 | 38.84987 | 34952 ft | 457 kts | 169° |
| 2026-05-05 08:51 | 52.58694 | 38.86941 | 34958 ft | 457 kts | 169° |
| 2026-05-05 08:52 | 52.52440 | 38.88891 | 34954 ft | 457 kts | 169° |
| 2026-05-05 08:52 | 52.46229 | 38.90836 | 34958 ft | 458 kts | 169° |
| 2026-05-05 08:53 | 52.40018 | 38.93151 | 34961 ft | 457 kts | 159° |
| 2026-05-05 08:53 | 52.34413 | 38.97965 | 34974 ft | 456 kts | 145° |
| 2026-05-05 08:54 | 52.29126 | 39.03672 | 34981 ft | 455 kts | 146° |
| 2026-05-05 08:54 | 52.23819 | 39.09327 | 34986 ft | 456 kts | 147° |
| 2026-05-05 08:55 | 52.18507 | 39.14973 | 34984 ft | 456 kts | 146° |
| 2026-05-05 08:55 | 52.13202 | 39.20626 | 34988 ft | 456 kts | 146° |
| 2026-05-05 08:56 | 52.07900 | 39.26272 | 34993 ft | 455 kts | 146° |
| 2026-05-05 08:56 | 52.02591 | 39.31899 | 35002 ft | 455 kts | 147° |
| 2026-05-05 08:57 | 51.97304 | 39.37467 | 34999 ft | 456 kts | 147° |
| 2026-05-05 08:57 | 51.91988 | 39.43054 | 34989 ft | 455 kts | 147° |
| 2026-05-05 08:58 | 51.86668 | 39.48635 | 34995 ft | 455 kts | 147° |
| 2026-05-05 08:58 | 51.81350 | 39.54200 | 35000 ft | 455 kts | 147° |
| 2026-05-05 08:59 | 51.76037 | 39.59739 | 35002 ft | 454 kts | 147° |
| 2026-05-05 08:59 | 51.70386 | 39.64230 | 35004 ft | 453 kts | 161° |
| 2026-05-05 09:00 | 51.64405 | 39.67456 | 35006 ft | 453 kts | 161° |
| 2026-05-05 09:00 | 51.58429 | 39.70711 | 35005 ft | 454 kts | 161° |
| 2026-05-05 09:01 | 51.52490 | 39.73934 | 35012 ft | 453 kts | 161° |
| 2026-05-05 09:01 | 51.46522 | 39.77154 | 35015 ft | 452 kts | 161° |
| 2026-05-05 09:02 | 51.40557 | 39.80365 | 35013 ft | 452 kts | 161° |
| 2026-05-05 09:02 | 51.34588 | 39.83568 | 35020 ft | 452 kts | 161° |
| 2026-05-05 09:03 | 51.28627 | 39.86762 | 35022 ft | 451 kts | 161° |
| 2026-05-05 09:03 | 51.22674 | 39.89931 | 35023 ft | 451 kts | 161° |
| 2026-05-05 09:04 | 51.16718 | 39.93093 | 35021 ft | 451 kts | 161° |
| 2026-05-05 09:04 | 51.10768 | 39.96254 | 35022 ft | 451 kts | 161° |
| 2026-05-05 09:05 | 51.04811 | 39.99406 | 35024 ft | 451 kts | 161° |
| 2026-05-05 09:05 | 50.98891 | 40.02536 | 35024 ft | 451 kts | 161° |
| 2026-05-05 09:06 | 50.92945 | 40.05665 | 35031 ft | 450 kts | 161° |
| 2026-05-05 09:06 | 50.87003 | 40.08784 | 35035 ft | 449 kts | 161° |
| 2026-05-05 09:07 | 50.81060 | 40.11894 | 35033 ft | 449 kts | 161° |
| 2026-05-05 09:07 | 50.75125 | 40.14989 | 35034 ft | 449 kts | 161° |
| 2026-05-05 09:08 | 50.69188 | 40.18070 | 35036 ft | 449 kts | 161° |
| 2026-05-05 09:08 | 50.63252 | 40.21152 | 35034 ft | 449 kts | 161° |
| 2026-05-05 09:09 | 50.57361 | 40.24208 | 35032 ft | 449 kts | 161° |
| 2026-05-05 09:09 | 50.51425 | 40.27269 | 35029 ft | 449 kts | 161° |
| 2026-05-05 09:10 | 50.45487 | 40.30324 | 35029 ft | 449 kts | 162° |
| 2026-05-05 09:10 | 50.39552 | 40.33383 | 35029 ft | 449 kts | 162° |
| 2026-05-05 09:11 | 50.33614 | 40.36429 | 35027 ft | 449 kts | 162° |
| 2026-05-05 09:11 | 50.27673 | 40.39458 | 35030 ft | 449 kts | 162° |
| 2026-05-05 09:12 | 50.21777 | 40.42465 | 35030 ft | 449 kts | 162° |
| 2026-05-05 09:12 | 50.15833 | 40.45491 | 35026 ft | 449 kts | 162° |
| 2026-05-05 09:13 | 50.09884 | 40.48507 | 35025 ft | 450 kts | 162° |
| 2026-05-05 09:13 | 50.03924 | 40.51513 | 35025 ft | 450 kts | 162° |
| 2026-05-05 09:14 | 49.97958 | 40.54510 | 35030 ft | 450 kts | 162° |
| 2026-05-05 09:14 | 49.92036 | 40.57484 | 35029 ft | 450 kts | 162° |
| 2026-05-05 09:15 | 49.86068 | 40.60468 | 35029 ft | 451 kts | 162° |
| 2026-05-05 09:15 | 49.80091 | 40.63445 | 35026 ft | 451 kts | 162° |
| 2026-05-05 09:16 | 49.74111 | 40.66424 | 35029 ft | 452 kts | 162° |
| 2026-05-05 09:16 | 49.68124 | 40.69395 | 35030 ft | 452 kts | 162° |
| 2026-05-05 09:17 | 49.61966 | 40.71197 | 35028 ft | 452 kts | 178° |
| 2026-05-05 09:17 | 49.55673 | 40.71038 | 35028 ft | 452 kts | 181° |
| 2026-05-05 09:18 | 49.49374 | 40.70863 | 35030 ft | 453 kts | 180° |
| 2026-05-05 09:18 | 49.43113 | 40.70685 | 35029 ft | 453 kts | 180° |
| 2026-05-05 09:19 | 49.36806 | 40.70499 | 35028 ft | 453 kts | 180° |
| 2026-05-05 09:19 | 49.30502 | 40.70323 | 35029 ft | 453 kts | 180° |
| 2026-05-05 09:20 | 49.25262 | 40.70190 | 35033 ft | 453 kts | 180° |
| 2026-05-05 09:20 | 49.18959 | 40.70034 | 35033 ft | 453 kts | 180° |
| 2026-05-05 09:21 | 49.12649 | 40.69873 | 35031 ft | 453 kts | 180° |
| 2026-05-05 09:21 | 49.06340 | 40.69702 | 35031 ft | 453 kts | 180° |
| 2026-05-05 09:22 | 49.00022 | 40.69536 | 35034 ft | 453 kts | 180° |
| 2026-05-05 09:22 | 48.93755 | 40.69381 | 35042 ft | 454 kts | 180° |
| 2026-05-05 09:23 | 48.87494 | 40.68089 | 35037 ft | 456 kts | 189° |
| 2026-05-05 09:23 | 48.81261 | 40.66254 | 35035 ft | 456 kts | 189° |
| 2026-05-05 09:24 | 48.75031 | 40.64436 | 35035 ft | 456 kts | 189° |
| 2026-05-05 09:24 | 48.68796 | 40.62623 | 35029 ft | 456 kts | 189° |
| 2026-05-05 09:25 | 48.62553 | 40.60811 | 35027 ft | 457 kts | 189° |
| 2026-05-05 09:25 | 48.56302 | 40.59006 | 35027 ft | 458 kts | 189° |
| 2026-05-05 09:26 | 48.50075 | 40.57212 | 35025 ft | 459 kts | 189° |
| 2026-05-05 09:26 | 48.43797 | 40.55404 | 35027 ft | 460 kts | 189° |
| 2026-05-05 09:27 | 48.37507 | 40.53615 | 35026 ft | 460 kts | 188° |
| 2026-05-05 09:27 | 48.31215 | 40.51840 | 35029 ft | 460 kts | 188° |
| 2026-05-05 09:28 | 48.24918 | 40.50049 | 35031 ft | 460 kts | 188° |
| 2026-05-05 09:28 | 48.18619 | 40.48259 | 35043 ft | 461 kts | 188° |
| 2026-05-05 09:29 | 48.12313 | 40.46475 | 35034 ft | 462 kts | 188° |
| 2026-05-05 09:29 | 48.05992 | 40.44703 | 35032 ft | 462 kts | 188° |
| 2026-05-05 09:30 | 47.99670 | 40.42945 | 35030 ft | 462 kts | 188° |
| 2026-05-05 09:30 | 47.93348 | 40.41174 | 35037 ft | 462 kts | 187° |
| 2026-05-05 09:31 | 47.87064 | 40.39413 | 35043 ft | 462 kts | 187° |
| 2026-05-05 09:31 | 47.80726 | 40.37889 | 35046 ft | 458 kts | 179° |
| 2026-05-05 09:32 | 47.74411 | 40.38261 | 35048 ft | 453 kts | 172° |
| 2026-05-05 09:32 | 47.68109 | 40.38938 | 35057 ft | 453 kts | 172° |
| 2026-05-05 09:33 | 47.61818 | 40.39613 | 35051 ft | 453 kts | 172° |
| 2026-05-05 09:33 | 47.55535 | 40.40286 | 35045 ft | 453 kts | 172° |
| 2026-05-05 09:34 | 47.49248 | 40.40956 | 35047 ft | 453 kts | 172° |
| 2026-05-05 09:34 | 47.42961 | 40.41618 | 35046 ft | 453 kts | 172° |
| 2026-05-05 09:35 | 47.36675 | 40.42279 | 35055 ft | 453 kts | 171° |
| 2026-05-05 09:35 | 47.27251 | 40.43275 | 35050 ft | 453 kts | 171° |
| 2026-05-05 09:36 | 47.20972 | 40.43934 | 35054 ft | 452 kts | 171° |
| 2026-05-05 09:36 | 47.14675 | 40.44128 | 35047 ft | 457 kts | 182° |
| 2026-05-05 09:37 | 47.08501 | 40.41618 | 35040 ft | 467 kts | 201° |
| 2026-05-05 09:37 | 47.02778 | 40.37160 | 35036 ft | 469 kts | 205° |
| 2026-05-05 09:38 | 46.97016 | 40.32624 | 35031 ft | 470 kts | 205° |
| 2026-05-05 09:38 | 46.91247 | 40.28100 | 35046 ft | 470 kts | 205° |
| 2026-05-05 09:39 | 46.85481 | 40.23586 | 35038 ft | 470 kts | 205° |
| 2026-05-05 09:39 | 46.79721 | 40.19078 | 35033 ft | 470 kts | 205° |
| 2026-05-05 09:40 | 46.73955 | 40.14576 | 35036 ft | 470 kts | 205° |
| 2026-05-05 09:40 | 46.68192 | 40.10098 | 35053 ft | 469 kts | 204° |
| 2026-05-05 09:41 | 46.62432 | 40.05632 | 35050 ft | 469 kts | 204° |
| 2026-05-05 09:41 | 46.56685 | 40.01179 | 35044 ft | 468 kts | 204° |
| 2026-05-05 09:42 | 46.50971 | 39.96760 | 35052 ft | 468 kts | 204° |
| 2026-05-05 09:42 | 46.45227 | 39.92326 | 35035 ft | 467 kts | 204° |
| 2026-05-05 09:43 | 46.39479 | 39.87914 | 35021 ft | 467 kts | 204° |
| 2026-05-05 09:43 | 46.33732 | 39.83508 | 35016 ft | 467 kts | 204° |
| 2026-05-05 09:44 | 46.27982 | 39.79110 | 35017 ft | 468 kts | 204° |
| 2026-05-05 09:44 | 46.22226 | 39.74717 | 35014 ft | 468 kts | 204° |
| 2026-05-05 09:45 | 46.16467 | 39.70327 | 35022 ft | 468 kts | 204° |
| 2026-05-05 09:45 | 46.10703 | 39.65954 | 35020 ft | 468 kts | 204° |
| 2026-05-05 09:46 | 46.04928 | 39.61579 | 35015 ft | 468 kts | 204° |
| 2026-05-05 09:46 | 45.99159 | 39.57215 | 35014 ft | 469 kts | 204° |
| 2026-05-05 09:47 | 45.93387 | 39.52865 | 35010 ft | 468 kts | 204° |
| 2026-05-05 09:47 | 45.87615 | 39.48524 | 35017 ft | 468 kts | 204° |
| 2026-05-05 09:48 | 45.81834 | 39.44184 | 35012 ft | 468 kts | 204° |
| 2026-05-05 09:48 | 45.76060 | 39.39858 | 35005 ft | 468 kts | 204° |
| 2026-05-05 09:49 | 45.70323 | 39.35564 | 35014 ft | 468 kts | 204° |
| 2026-05-05 09:49 | 45.64534 | 39.31286 | 35004 ft | 468 kts | 202° |
| 2026-05-05 09:50 | 45.58600 | 39.27530 | 35009 ft | 465 kts | 198° |
| 2026-05-05 09:50 | 45.52585 | 39.24138 | 35021 ft | 464 kts | 198° |
| 2026-05-05 09:51 | 45.46586 | 39.20705 | 35010 ft | 465 kts | 198° |
| 2026-05-05 09:51 | 45.40616 | 39.17160 | 35009 ft | 465 kts | 199° |
| 2026-05-05 09:52 | 45.34657 | 39.13595 | 35003 ft | 464 kts | 199° |
| 2026-05-05 09:52 | 45.28694 | 39.10057 | 35005 ft | 464 kts | 199° |
| 2026-05-05 09:53 | 45.22723 | 39.06540 | 34994 ft | 464 kts | 199° |
| 2026-05-05 09:53 | 45.16757 | 39.03034 | 34990 ft | 464 kts | 198° |
| 2026-05-05 09:54 | 45.10785 | 38.99535 | 34993 ft | 465 kts | 199° |
| 2026-05-05 09:54 | 45.04831 | 38.96055 | 34981 ft | 466 kts | 199° |
| 2026-05-05 09:55 | 44.98840 | 38.92539 | 34987 ft | 466 kts | 199° |
| 2026-05-05 09:55 | 44.92844 | 38.89048 | 35005 ft | 466 kts | 198° |
| 2026-05-05 09:56 | 44.86834 | 38.85566 | 34989 ft | 467 kts | 198° |
| 2026-05-05 09:56 | 44.80748 | 38.82432 | 34978 ft | 462 kts | 188° |
| 2026-05-05 09:57 | 44.74440 | 38.81740 | 34974 ft | 451 kts | 170° |
| 2026-05-05 09:57 | 44.68364 | 38.83499 | 34988 ft | 445 kts | 161° |
| 2026-05-05 09:58 | 44.62383 | 38.85733 | 34984 ft | 445 kts | 161° |
| 2026-05-05 09:58 | 44.56404 | 38.87951 | 34949 ft | 444 kts | 161° |
| 2026-05-05 09:59 | 44.53436 | 38.89047 | 33906 ft | 440 kts | 160° |
| 2026-05-05 09:59 | 44.50449 | 38.90154 | 31983 ft | 447 kts | 160° |
| 2026-05-05 09:59 | 44.47428 | 38.91278 | 30378 ft | 448 kts | 160° |
| 2026-05-05 09:59 | 44.44474 | 38.92363 | 29577 ft | 429 kts | 160° |
| 2026-05-05 10:00 | 44.41611 | 38.93407 | 28623 ft | 425 kts | 160° |
| 2026-05-05 10:00 | 44.38742 | 38.94464 | 27665 ft | 428 kts | 160° |
| 2026-05-05 10:00 | 44.35837 | 38.95545 | 26549 ft | 435 kts | 160° |
| 2026-05-05 10:00 | 44.32885 | 38.96649 | 25419 ft | 443 kts | 161° |
| 2026-05-05 10:01 | 44.29870 | 38.97714 | 24325 ft | 450 kts | 163° |
| 2026-05-05 10:01 | 44.26830 | 38.98701 | 23298 ft | 455 kts | 164° |
| 2026-05-05 10:01 | 44.23748 | 38.99646 | 22443 ft | 452 kts | 165° |
| 2026-05-05 10:01 | 44.20693 | 39.00564 | 21672 ft | 447 kts | 166° |
| 2026-05-05 10:02 | 44.17666 | 39.01480 | 20898 ft | 443 kts | 166° |
| 2026-05-05 10:02 | 44.14673 | 39.02403 | 20149 ft | 439 kts | 166° |
| 2026-05-05 10:02 | 44.11709 | 39.03310 | 19581 ft | 434 kts | 167° |
| 2026-05-05 10:02 | 44.08750 | 39.04163 | 19336 ft | 434 kts | 168° |
| 2026-05-05 10:03 | 44.05794 | 39.04980 | 19096 ft | 433 kts | 168° |
| 2026-05-05 10:03 | 44.02841 | 39.05775 | 18850 ft | 431 kts | 168° |
| 2026-05-05 10:03 | 43.99908 | 39.06561 | 18614 ft | 428 kts | 168° |
| 2026-05-05 10:03 | 43.96985 | 39.07346 | 18367 ft | 428 kts | 169° |
| 2026-05-05 10:04 | 43.94062 | 39.08135 | 18120 ft | 427 kts | 169° |
| 2026-05-05 10:04 | 43.91151 | 39.08926 | 17842 ft | 426 kts | 169° |
| 2026-05-05 10:04 | 43.88253 | 39.09720 | 17572 ft | 424 kts | 169° |
| 2026-05-05 10:04 | 43.85365 | 39.10514 | 17308 ft | 422 kts | 169° |
| 2026-05-05 10:05 | 43.82488 | 39.11308 | 17042 ft | 421 kts | 169° |
| 2026-05-05 10:05 | 43.79623 | 39.12097 | 16779 ft | 419 kts | 169° |
| 2026-05-05 10:05 | 43.76771 | 39.12881 | 16519 ft | 417 kts | 169° |
| 2026-05-05 10:05 | 43.73927 | 39.13654 | 16260 ft | 416 kts | 169° |
| 2026-05-05 10:06 | 43.71092 | 39.14420 | 16006 ft | 414 kts | 169° |
| 2026-05-05 10:06 | 43.68273 | 39.15182 | 15744 ft | 412 kts | 169° |
| 2026-05-05 10:06 | 43.65466 | 39.15945 | 15500 ft | 411 kts | 169° |
| 2026-05-05 10:06 | 43.62667 | 39.16710 | 15258 ft | 409 kts | 169° |
| 2026-05-05 10:07 | 43.59880 | 39.17473 | 15011 ft | 408 kts | 169° |
| 2026-05-05 10:07 | 43.57105 | 39.18231 | 14763 ft | 406 kts | 169° |
| 2026-05-05 10:07 | 43.54331 | 39.18986 | 14518 ft | 405 kts | 169° |
| 2026-05-05 10:07 | 43.51575 | 39.19731 | 14276 ft | 403 kts | 169° |
| 2026-05-05 10:08 | 43.48854 | 39.20466 | 14039 ft | 402 kts | 169° |
| 2026-05-05 10:08 | 43.46107 | 39.21210 | 13796 ft | 402 kts | 169° |
| 2026-05-05 10:08 | 43.43380 | 39.21945 | 13521 ft | 396 kts | 169° |
| 2026-05-05 10:08 | 43.40669 | 39.22673 | 13258 ft | 396 kts | 169° |
| 2026-05-05 10:09 | 43.37970 | 39.23398 | 12973 ft | 395 kts | 169° |
| 2026-05-05 10:09 | 43.35274 | 39.24122 | 12145 ft | 396 kts | 169° |
| 2026-05-05 10:09 | 43.33483 | 39.24604 | 11586 ft | 395 kts | 169° |
| 2026-05-05 10:09 | 43.30809 | 39.25326 | 11128 ft | 384 kts | 169° |
| 2026-05-05 10:10 | 43.28245 | 39.26019 | 11000 ft | 366 kts | 169° |
| 2026-05-05 10:10 | 43.25800 | 39.26681 | 10872 ft | 350 kts | 169° |
| 2026-05-05 10:10 | 43.23465 | 39.27314 | 10752 ft | 335 kts | 169° |
| 2026-05-05 10:10 | 43.21227 | 39.27923 | 10622 ft | 321 kts | 169° |
| 2026-05-05 10:11 | 43.19179 | 39.28939 | 10498 ft | 309 kts | 149° |
| 2026-05-05 10:11 | 43.17599 | 39.30839 | 10375 ft | 298 kts | 128° |
| 2026-05-05 10:11 | 43.16669 | 39.33322 | 10182 ft | 292 kts | 107° |
| 2026-05-05 10:11 | 43.16471 | 39.36062 | 10105 ft | 292 kts | 85° |
| 2026-05-05 10:12 | 43.16946 | 39.38763 | 10038 ft | 294 kts | 73° |
| 2026-05-05 10:12 | 43.17580 | 39.41430 | 9725 ft | 297 kts | 73° |
| 2026-05-05 10:12 | 43.18212 | 39.44098 | 9130 ft | 290 kts | 73° |
| 2026-05-05 10:12 | 43.18822 | 39.46692 | 8666 ft | 289 kts | 73° |
| 2026-05-05 10:13 | 43.19432 | 39.49305 | 8193 ft | 286 kts | 72° |
| 2026-05-05 10:13 | 43.20035 | 39.51895 | 7724 ft | 284 kts | 72° |
| 2026-05-05 10:13 | 43.20632 | 39.54470 | 7243 ft | 283 kts | 72° |
| 2026-05-05 10:13 | 43.21232 | 39.57054 | 6800 ft | 285 kts | 72° |
| 2026-05-05 10:14 | 43.21831 | 39.59637 | 6364 ft | 285 kts | 71° |
| 2026-05-05 10:14 | 43.22431 | 39.62223 | 5899 ft | 286 kts | 71° |
| 2026-05-05 10:14 | 43.23027 | 39.64788 | 5618 ft | 279 kts | 71° |
| 2026-05-05 10:14 | 43.23609 | 39.67293 | 4970 ft | 274 kts | 71° |
| 2026-05-05 10:15 | 43.24179 | 39.69753 | 4415 ft | 269 kts | 71° |
| 2026-05-05 10:15 | 43.24741 | 39.72186 | 3958 ft | 267 kts | 71° |
| 2026-05-05 10:15 | 43.25299 | 39.74610 | 3517 ft | 265 kts | 71° |
| 2026-05-05 10:15 | 43.25852 | 39.77009 | 3071 ft | 263 kts | 72° |
| 2026-05-05 10:16 | 43.26407 | 39.79401 | 2623 ft | 262 kts | 69° |
| 2026-05-05 10:16 | 43.27223 | 39.81502 | 2459 ft | 236 kts | 51° |
| 2026-05-05 10:16 | 43.28336 | 39.83044 | 2426 ft | 218 kts | 36° |
| 2026-05-05 10:16 | 43.29595 | 39.84089 | 2328 ft | 207 kts | 26° |
| 2026-05-05 10:17 | 43.30852 | 39.85026 | 2239 ft | 204 kts | 27° |
| 2026-05-05 10:17 | 43.32097 | 39.85959 | 2151 ft | 204 kts | 26° |
| 2026-05-05 10:17 | 43.33341 | 39.86890 | 2059 ft | 203 kts | 26° |
| 2026-05-05 10:17 | 43.34553 | 39.87798 | 1995 ft | 194 kts | 27° |
| 2026-05-05 10:18 | 43.35692 | 39.88653 | 1731 ft | 177 kts | 27° |
| 2026-05-05 10:18 | 43.36707 | 39.89418 | 1467 ft | 157 kts | 26° |
| 2026-05-05 10:18 | 43.37650 | 39.90127 | 1268 ft | 151 kts | 27° |
| 2026-05-05 10:18 | 43.38571 | 39.90818 | 1081 ft | 149 kts | 27° |
| 2026-05-05 10:19 | 43.39477 | 39.91499 | 892 ft | 148 kts | 27° |
| 2026-05-05 10:19 | 43.40378 | 39.92165 | 747 ft | 148 kts | 25° |
| 2026-05-05 10:19 | 43.41275 | 39.92844 | 575 ft | 148 kts | 26° |
| 2026-05-05 10:19 | 43.42176 | 39.93520 | 394 ft | 148 kts | 25° |
| 2026-05-05 10:20 | 43.43076 | 39.94187 | 182 ft | 146 kts | 26° |
| 2026-05-05 10:20 | 43.43944 | 39.94840 | 67 ft | 132 kts | 27° |
| 2026-05-05 10:20 | 43.44560 | 39.95305 | 84 ft | 74 kts | 30° |
| 2026-05-05 10:20 | 43.44881 | 39.95550 | 90 ft | 35 kts | 28° |
| 2026-05-05 10:21 | 43.45079 | 39.95699 | 92 ft | 31 kts | 29° |
| 2026-05-05 10:21 | 43.45246 | 39.95825 | 92 ft | 14 kts | 28° |
| 2026-05-05 10:21 | 43.45291 | 39.95815 | 96 ft | 5 kts | 289° |
| 2026-05-05 10:21 | 43.45280 | 39.95766 | 95 ft | 6 kts | 245° |
| 2026-05-05 10:22 | 43.45256 | 39.95705 | 95 ft | 8 kts | 239° |
| 2026-05-05 10:22 | 43.45226 | 39.95636 | 92 ft | 8 kts | 239° |
| 2026-05-05 10:22 | 43.45198 | 39.95578 | 92 ft | 6 kts | 235° |
| 2026-05-05 10:22 | 43.45175 | 39.95534 | 92 ft | 5 kts | 234° |
| 2026-05-05 10:23 | 43.45155 | 39.95495 | 92 ft | 7 kts | 235° |
| 2026-05-05 10:23 | 43.45102 | 39.95383 | 90 ft | 17 kts | 240° |
| 2026-05-05 10:23 | 43.45049 | 39.95229 | 89 ft | 19 kts | 245° |
| 2026-05-05 10:23 | 43.44980 | 39.95068 | 86 ft | 20 kts | 228° |
| 2026-05-05 10:24 | 43.44914 | 39.94892 | 75 ft | 22 kts | 247° |
| 2026-05-05 10:24 | 43.44856 | 39.94724 | 69 ft | 13 kts | 244° |
| 2026-05-05 10:24 | 43.44816 | 39.94609 | 69 ft | 13 kts | 244° |
| 2026-05-05 10:24 | 43.44783 | 39.94510 | 71 ft | 4 kts | 251° |
| 2026-05-05 10:25 | 43.44786 | 39.94473 | 75 ft | 3 kts | 274° |
| 2026-05-05 10:25 | 43.44773 | 39.94430 | 66 ft | 8 kts | 252° |
| 2026-05-05 10:25 | 43.44799 | 39.94384 | 69 ft | 2 kts | 329° |
| 2026-05-05 10:25 | 43.44811 | 39.94376 | 69 ft | 2 kts | 333° |
| 2026-05-05 10:26 | 43.44814 | 39.94373 | 69 ft | 0 kts | 333° |